Time;durP1;ratioP1;P1;durP2;ratioP2;P2;SDS_P1;SDS_P2;PMS_P1;PMS_P2;Temp;Humidity;BMP_temperature;BMP_pressure;BME280_temperature;BME280_humidity;BME280_pressure;Samples;Min_cycle;Max_cycle;Signal;HPM_P1;HPM_P2
2023/07/20 00:00:28;;;;;;;2.25;1.25;;;23.80;86.40;;;;;;5081844;28;20047;-62
2023/07/20 00:02:56;;;;;;;1.92;1.10;;;23.50;86.20;;;;;;5074449;28;20044;-61
2023/07/20 00:05:24;;;;;;;3.13;1.42;;;23.70;86.70;;;;;;5089285;28;20413;-62
2023/07/20 00:07:52;;;;;;;2.17;1.20;;;23.50;83.20;;;;;;5095503;28;20067;-69
2023/07/20 00:10:17;;;;;;;2.67;1.20;;;23.70;86.10;;;;;;5094253;28;20036;-63
2023/07/20 00:12:47;;;;;;;2.58;1.30;;;23.60;85.60;;;;;;5095648;28;20051;-62
2023/07/20 00:15:13;;;;;;;2.78;1.45;;;23.50;85.60;;;;;;5095464;28;20115;-68
2023/07/20 00:17:39;;;;;;;3.55;1.30;;;23.50;86.60;;;;;;5091327;28;20040;-70
2023/07/20 00:20:06;;;;;;;4.13;1.63;;;23.40;85.60;;;;;;5093153;28;20490;-61
2023/07/20 00:22:32;;;;;;;3.03;1.30;;;23.60;86.70;;;;;;5086093;28;20044;-67
2023/07/20 00:24:58;;;;;;;3.28;1.70;;;23.60;86.80;;;;;;5075386;28;20478;-66
2023/07/20 00:27:24;;;;;;;2.92;1.48;;;23.70;85.80;;;;;;5085463;28;20040;-64
2023/07/20 00:29:50;;;;;;;2.05;1.60;;;23.60;86.60;;;;;;5093101;28;20444;-69
2023/07/20 00:32:16;;;;;;;3.67;2.00;;;23.60;83.20;;;;;;5072266;28;20059;-63
2023/07/20 00:34:41;;;;;;;4.20;1.90;;;23.60;83.20;;;;;;5086136;28;20170;-63
2023/07/20 00:37:07;;;;;;;4.57;2.10;;;23.70;83.40;;;;;;5085402;28;20115;-63
2023/07/20 00:39:33;;;;;;;3.60;1.95;;;23.60;85.70;;;;;;5090195;28;20043;-61
2023/07/20 00:42:00;;;;;;;3.72;2.08;;;23.60;83.20;;;;;;5088412;28;20062;-63
2023/07/20 00:44:25;;;;;;;3.33;1.83;;;23.50;85.90;;;;;;5106797;28;20102;-63
2023/07/20 00:46:51;;;;;;;3.28;1.90;;;23.40;83.30;;;;;;5095728;28;20036;-61
2023/07/20 00:49:20;;;;;;;3.72;2.03;;;23.70;85.90;;;;;;5076611;28;20041;-68
2023/07/20 00:51:47;;;;;;;3.15;1.90;;;23.50;86.00;;;;;;5086308;28;20101;-63
2023/07/20 00:54:13;;;;;;;3.92;1.77;;;23.60;83.60;;;;;;5094311;28;20060;-67
2023/07/20 00:56:39;;;;;;;3.30;1.80;;;23.50;83.10;;;;;;5080347;28;20043;-65
2023/07/20 00:59:04;;;;;;;4.35;1.88;;;23.70;85.90;;;;;;5077237;28;20551;-66
2023/07/20 01:01:30;;;;;;;2.72;1.80;;;23.50;86.50;;;;;;5094117;28;20093;-69
2023/07/20 01:03:56;;;;;;;2.65;1.70;;;23.70;86.10;;;;;;5091388;28;20050;-64
2023/07/20 01:06:38;;;;;;;2.88;1.80;;;23.60;83.30;;;;;;5093991;28;20091;-67
2023/07/20 01:09:16;;;;;;;4.63;1.80;;;23.60;86.40;;;;;;5088823;28;20036;-62
2023/07/20 01:11:49;;;;;;;2.53;1.55;;;23.40;83.70;;;;;;5094083;28;20044;-64
2023/07/20 01:14:15;;;;;;;2.47;1.55;;;23.40;86.30;;;;;;5084691;28;20048;-62
2023/07/20 01:16:41;;;;;;;2.80;1.65;;;23.50;85.80;;;;;;5089063;28;20131;-73
2023/07/20 01:19:07;;;;;;;2.70;1.60;;;23.50;83.50;;;;;;5091302;28;20093;-67
2023/07/20 01:22:01;;;;;;;2.90;1.45;;;23.50;86.30;;;;;;5090439;28;20041;-67
2023/07/20 01:24:32;;;;;;;2.30;1.48;;;23.60;86.00;;;;;;5089832;28;20059;-69
2023/07/20 01:27:27;;;;;;;3.88;1.60;;;23.50;83.60;;;;;;5091636;28;20431;-71
2023/07/20 01:30:04;;;;;;;3.53;1.60;;;23.60;82.50;;;;;;5077390;28;20159;-71
2023/07/20 01:32:30;;;;;;;3.22;1.60;;;23.60;86.30;;;;;;5088439;28;20031;-71
2023/07/20 01:34:56;;;;;;;4.15;1.52;;;23.40;83.40;;;;;;5093729;28;20504;-65
2023/07/20 01:37:27;;;;;;;2.47;1.50;;;23.40;86.00;;;;;;5072670;28;20037;-71
2023/07/20 01:39:55;;;;;;;3.42;1.60;;;23.30;85.80;;;;;;5081932;28;20095;-70
2023/07/20 01:42:24;;;;;;;2.80;1.30;;;23.50;86.20;;;;;;5089879;28;20040;-71
2023/07/20 01:44:53;;;;;;;3.00;1.30;;;23.50;86.00;;;;;;5061189;28;20059;-70
2023/07/20 01:47:19;;;;;;;4.25;1.48;;;23.50;86.00;;;;;;5088817;28;20087;-72
2023/07/20 01:49:45;;;;;;;2.92;1.50;;;23.50;83.50;;;;;;5091691;28;20075;-75
2023/07/20 01:52:10;;;;;;;3.33;1.65;;;23.40;85.90;;;;;;5092006;28;20032;-61
2023/07/20 01:54:36;;;;;;;2.58;1.58;;;23.50;83.50;;;;;;5094257;28;20047;-72
2023/07/20 01:57:03;;;;;;;2.00;1.35;;;23.40;86.20;;;;;;5091334;28;20397;-72
2023/07/20 01:59:28;;;;;;;2.10;1.35;;;23.50;83.10;;;;;;5092078;28;20059;-63
2023/07/20 02:01:54;;;;;;;2.40;1.50;;;23.30;83.40;;;;;;5089502;28;20044;-69
2023/07/20 02:04:20;;;;;;;2.70;1.60;;;23.40;86.00;;;;;;5090256;28;20040;-70
2023/07/20 02:06:46;;;;;;;2.10;1.30;;;;;;;;;;5087971;28;20489;-64
2023/07/20 02:09:12;;;;;;;1.73;1.20;;;23.40;86.60;;;;;;5086744;28;20066;-73
2023/07/20 02:11:37;;;;;;;2.45;1.40;;;23.30;85.90;;;;;;5091560;28;20131;-66
2023/07/20 02:14:03;;;;;;;3.20;1.30;;;23.20;83.40;;;;;;5091974;28;20085;-69
2023/07/20 02:16:29;;;;;;;2.95;1.35;;;23.10;85.80;;;;;;5091928;28;20058;-69
2023/07/20 02:18:56;;;;;;;3.97;1.42;;;23.40;83.70;;;;;;5088645;28;20044;-70
2023/07/20 02:21:22;;;;;;;1.80;1.27;;;23.40;86.30;;;;;;5087021;28;20048;-71
2023/07/20 02:23:48;;;;;;;2.75;1.30;;;23.30;83.60;;;;;;5087301;28;20114;-69
2023/07/20 02:26:14;;;;;;;1.52;1.13;;;23.40;86.10;;;;;;5092510;28;20043;-69
2023/07/20 02:28:41;;;;;;;2.05;1.33;;;23.40;83.80;;;;;;5089346;28;20048;-67
2023/07/20 02:31:07;;;;;;;3.78;1.35;;;23.30;86.00;;;;;;5092071;28;20051;-64
2023/07/20 02:33:32;;;;;;;3.20;1.30;;;23.20;83.70;;;;;;5086149;28;20118;-71
2023/07/20 02:35:58;;;;;;;3.40;1.33;;;23.30;86.00;;;;;;5091957;28;20114;-71
2023/07/20 02:38:24;;;;;;;2.67;1.35;;;23.00;86.60;;;;;;5089085;28;20043;-71
2023/07/20 02:40:51;;;;;;;2.38;1.20;;;23.10;86.00;;;;;;5086424;28;20059;-69
2023/07/20 02:43:17;;;;;;;2.75;1.40;;;23.10;86.00;;;;;;5089283;28;20058;-66
2023/07/20 02:45:43;;;;;;;2.70;1.33;;;23.10;83.80;;;;;;5090703;28;20416;-69
2023/07/20 02:48:09;;;;;;;4.15;1.25;;;23.10;83.80;;;;;;5073233;28;20052;-70
2023/07/20 02:50:35;;;;;;;2.17;1.20;;;23.20;86.00;;;;;;5072880;28;20051;-70
2023/07/20 02:53:01;;;;;;;3.78;1.40;;;23.10;85.90;;;;;;5073968;28;20084;-68
2023/07/20 02:55:26;;;;;;;3.83;1.23;;;23.20;86.10;;;;;;5089396;28;20067;-70
2023/07/20 02:57:52;;;;;;;2.33;1.15;;;23.30;84.10;;;;;;5093290;28;20048;-70
2023/07/20 03:00:19;;;;;;;3.58;1.30;;;23.20;86.00;;;;;;5089870;28;20120;-67
2023/07/20 03:02:47;;;;;;;2.80;1.30;;;23.20;86.10;;;;;;5091924;28;20050;-70
2023/07/20 03:05:13;;;;;;;3.25;1.38;;;23.30;83.90;;;;;;5091375;28;20479;-67
2023/07/20 03:07:39;;;;;;;3.88;1.42;;;23.10;85.90;;;;;;5088679;28;20116;-72
2023/07/20 03:10:09;;;;;;;4.05;1.45;;;23.00;86.20;;;;;;5088782;28;20588;-70
2023/07/20 03:12:35;;;;;;;3.97;1.58;;;23.00;83.10;;;;;;5085767;28;20040;-71
2023/07/20 03:15:04;;;;;;;3.17;1.35;;;23.20;86.70;;;;;;5080611;28;20044;-71
2023/07/20 03:17:30;;;;;;;4.80;1.40;;;23.20;83.40;;;;;;5090940;28;20094;-72
2023/07/20 03:19:56;;;;;;;3.35;1.20;;;22.90;85.70;;;;;;5091782;28;20386;-70
2023/07/20 03:22:21;;;;;;;3.03;1.38;;;23.00;86.00;;;;;;5088784;28;20036;-66
2023/07/20 03:24:47;;;;;;;3.05;1.17;;;23.10;86.20;;;;;;5091602;28;20083;-68
2023/07/20 03:27:13;;;;;;;3.00;1.50;;;23.00;85.90;;;;;;5090160;28;20040;-69
2023/07/20 03:29:39;;;;;;;2.95;1.38;;;23.10;83.50;;;;;;5091152;28;20042;-67
2023/07/20 03:32:05;;;;;;;3.10;1.55;;;23.00;85.80;;;;;;5088807;28;20047;-73
2023/07/20 03:34:31;;;;;;;2.85;1.30;;;23.00;85.70;;;;;;5077185;28;20356;-62
2023/07/20 03:36:57;;;;;;;2.45;1.20;;;23.20;85.90;;;;;;5091047;28;20048;-71
2023/07/20 03:39:23;;;;;;;3.22;1.25;;;22.90;83.30;;;;;;5092365;28;20046;-73
2023/07/20 03:41:48;;;;;;;3.70;1.30;;;23.00;85.80;;;;;;5096288;28;20054;-68
2023/07/20 03:44:14;;;;;;;1.90;1.10;;;22.90;85.70;;;;;;5092686;28;20044;-67
2023/07/20 03:46:40;;;;;;;4.20;1.10;;;23.10;85.90;;;;;;5085818;28;20047;-67
2023/07/20 03:49:06;;;;;;;3.45;1.20;;;23.00;85.80;;;;;;5094056;28;20043;-73
2023/07/20 03:51:32;;;;;;;2.45;1.33;;;23.00;85.90;;;;;;5095951;28;20478;-73
2023/07/20 03:53:58;;;;;;;5.70;1.40;;;23.00;85.70;;;;;;5089744;28;20044;-71
2023/07/20 03:56:24;;;;;;;2.65;1.23;;;22.90;85.70;;;;;;5094775;28;20063;-70
2023/07/20 03:58:50;;;;;;;2.78;1.25;;;22.80;83.30;;;;;;5089823;28;20084;-67
2023/07/20 04:01:16;;;;;;;4.88;1.40;;;;;;;;;;5096480;28;20075;-65
2023/07/20 04:03:42;;;;;;;3.70;1.42;;;22.90;81.40;;;;;;5091728;28;20039;-67
2023/07/20 04:06:08;;;;;;;4.57;1.50;;;22.90;86.50;;;;;;5092378;28;20039;-69
2023/07/20 04:08:35;;;;;;;4.60;1.20;;;22.90;85.70;;;;;;5092946;28;20044;-69
2023/07/20 04:11:02;;;;;;;5.22;1.30;;;22.70;85.50;;;;;;5095455;28;20040;-68
2023/07/20 04:13:28;;;;;;;2.65;1.25;;;22.80;85.50;;;;;;5094510;28;20040;-69
2023/07/20 04:15:53;;;;;;;5.13;1.42;;;22.80;86.20;;;;;;5090056;28;20389;-71
2023/07/20 04:18:19;;;;;;;3.20;1.00;;;23.00;85.50;;;;;;5093201;28;20071;-68
2023/07/20 04:20:45;;;;;;;3.78;1.30;;;22.90;85.50;;;;;;5086474;28;20762;-68
2023/07/20 04:23:11;;;;;;;3.20;1.25;;;23.00;85.60;;;;;;5091712;28;20127;-69
2023/07/20 04:25:39;;;;;;;3.20;1.10;;;22.90;85.50;;;;;;5090519;28;20143;-67
2023/07/20 04:28:08;;;;;;;4.20;1.25;;;23.00;83.20;;;;;;5093646;28;20105;-64
2023/07/20 04:30:35;;;;;;;4.63;1.23;;;23.00;85.50;;;;;;5094390;28;20551;-64
2023/07/20 04:33:01;;;;;;;2.88;1.30;;;22.90;85.50;;;;;;5093268;28;20052;-65
2023/07/20 04:35:54;;;;;;;6.22;1.35;;;23.00;85.60;;;;;;5091493;28;20944;-71
2023/07/20 04:38:20;;;;;;;3.35;1.20;;;22.90;85.70;;;;;;5089069;28;20055;-67
2023/07/20 04:40:48;;;;;;;5.13;1.45;;;22.80;83.10;;;;;;5086632;28;20055;-68
2023/07/20 04:43:14;;;;;;;3.78;1.30;;;23.00;85.60;;;;;;5094017;28;20055;-71
2023/07/20 04:45:40;;;;;;;4.05;1.30;;;22.80;85.70;;;;;;5095230;28;20051;-68
2023/07/20 04:48:09;;;;;;;2.80;1.30;;;22.90;83.40;;;;;;5094456;28;20051;-66
2023/07/20 04:50:35;;;;;;;4.47;1.13;;;22.90;85.70;;;;;;5089014;28;20036;-68
2023/07/20 04:53:01;;;;;;;2.22;1.00;;;22.90;85.70;;;;;;5088437;28;20059;-73
2023/07/20 04:55:28;;;;;;;4.18;1.23;;;22.90;85.50;;;;;;5080966;28;20060;-66
2023/07/20 04:57:53;;;;;;;4.63;1.08;;;23.00;85.90;;;;;;5084851;28;20094;-68
2023/07/20 05:00:21;;;;;;;4.53;1.30;;;23.00;85.80;;;;;;5090941;28;20513;-69
2023/07/20 05:02:48;;;;;;;5.85;1.38;;;23.00;85.80;;;;;;5094534;28;20047;-72
2023/07/20 05:05:15;;;;;;;4.15;1.20;;;22.80;85.80;;;;;;5089761;28;20056;-72
2023/07/20 05:07:41;;;;;;;4.38;1.20;;;23.10;85.90;;;;;;5091348;28;20047;-66
2023/07/20 05:10:07;;;;;;;8.38;1.48;;;;;;;;;;5091616;28;20044;-70
2023/07/20 05:12:33;;;;;;;4.43;1.20;;;23.00;85.70;;;;;;5080861;28;20045;-68
2023/07/20 05:14:59;;;;;;;4.65;1.13;;;23.00;85.70;;;;;;5080870;28;20043;-66
2023/07/20 05:17:24;;;;;;;3.95;1.27;;;23.00;85.80;;;;;;5093507;28;20055;-73
2023/07/20 05:19:50;;;;;;;4.43;1.05;;;23.30;86.00;;;;;;5094275;28;20036;-69
2023/07/20 05:22:16;;;;;;;4.93;1.08;;;23.50;85.30;;;;;;5085589;28;20047;-65
2023/07/20 05:24:43;;;;;;;5.38;1.20;;;23.50;84.80;;;;;;5082271;28;20044;-68
2023/07/20 05:27:08;;;;;;;4.78;1.27;;;23.60;82.00;;;;;;5074485;28;20047;-68
2023/07/20 05:29:34;;;;;;;5.72;1.10;;;23.90;84.20;;;;;;5084211;28;20048;-69
2023/07/20 05:32:00;;;;;;;5.63;1.42;;;24.20;84.00;;;;;;5088463;28;20568;-69
2023/07/20 05:34:26;;;;;;;4.07;1.20;;;24.40;83.80;;;;;;5086764;28;20509;-70
2023/07/20 05:36:52;;;;;;;4.63;1.33;;;24.20;81.10;;;;;;5088877;28;20096;-70
2023/07/20 05:39:18;;;;;;;3.28;0.98;;;24.40;80.90;;;;;;5090869;28;20044;-69
2023/07/20 05:41:44;;;;;;;4.22;1.30;;;24.70;80.80;;;;;;5088705;28;20119;-70
2023/07/20 05:44:09;;;;;;;6.50;1.70;;;24.60;80.20;;;;;;5091707;28;20122;-66
2023/07/20 05:46:35;;;;;;;2.92;1.38;;;24.90;80.10;;;;;;5082696;28;20039;-70
2023/07/20 05:49:01;;;;;;;4.30;1.65;;;25.10;79.90;;;;;;5093104;28;20048;-69
2023/07/20 05:51:27;;;;;;;4.53;1.50;;;25.30;80.00;;;;;;5091330;28;20040;-69
2023/07/20 05:53:53;;;;;;;4.60;1.90;;;25.00;79.20;;;;;;5088611;28;20126;-64
2023/07/20 05:56:19;;;;;;;4.07;1.80;;;25.20;79.00;;;;;;5090519;28;20094;-64
2023/07/20 05:58:45;;;;;;;5.05;1.88;;;25.10;81.20;;;;;;5092195;28;20044;-64
2023/07/20 06:01:10;;;;;;;2.72;1.50;;;25.60;78.90;;;;;;5092745;28;20051;-62
2023/07/20 06:03:37;;;;;;;4.72;1.67;;;25.70;78.70;;;;;;5079351;28;20132;-66
2023/07/20 06:06:04;;;;;;;4.97;1.83;;;25.70;78.60;;;;;;5091521;28;20040;-67
2023/07/20 06:08:30;;;;;;;6.30;1.77;;;25.70;78.30;;;;;;5092666;28;20059;-69
2023/07/20 06:10:56;;;;;;;4.40;1.55;;;25.90;78.40;;;;;;5091313;28;20063;-68
2023/07/20 06:13:22;;;;;;;6.82;1.60;;;25.60;78.00;;;;;;5090713;28;20050;-72
2023/07/20 06:15:47;;;;;;;5.25;1.50;;;25.90;77.90;;;;;;5088281;28;20044;-68
2023/07/20 06:18:13;;;;;;;5.88;1.83;;;25.80;77.60;;;;;;5085937;28;20104;-69
2023/07/20 06:20:40;;;;;;;2.45;1.27;;;25.90;77.60;;;;;;5082201;28;20048;-61
2023/07/20 06:23:05;;;;;;;3.40;1.50;;;26.00;76.90;;;;;;5093205;28;20127;-62
2023/07/20 06:25:31;;;;;;;2.30;1.25;;;26.00;77.40;;;;;;5090016;28;20128;-61
2023/07/20 06:27:57;;;;;;;6.03;1.63;;;25.80;77.20;;;;;;5092698;28;20044;-67
2023/07/20 06:30:23;;;;;;;4.75;1.48;;;26.20;77.40;;;;;;5092865;28;20093;-66
2023/07/20 06:32:49;;;;;;;4.68;1.35;;;26.10;77.60;;;;;;5088670;28;20048;-66
2023/07/20 06:35:15;;;;;;;4.43;1.42;;;25.90;77.10;;;;;;5091709;28;20075;-66
2023/07/20 06:37:42;;;;;;;4.25;1.35;;;26.20;77.20;;;;;;5080048;28;20036;-69
2023/07/20 06:40:11;;;;;;;6.20;1.60;;;26.10;76.90;;;;;;5093609;28;20043;-61
2023/07/20 06:42:37;;;;;;;3.55;1.40;;;26.20;76.40;;;;;;5101132;28;20051;-64
2023/07/20 06:45:03;;;;;;;4.15;1.20;;;26.30;77.00;;;;;;5091896;28;20044;-63
2023/07/20 06:47:28;;;;;;;4.90;1.50;;;26.60;76.80;;;;;;5091718;28;20051;-63
2023/07/20 06:49:54;;;;;;;4.00;1.55;;;26.40;76.90;;;;;;5093412;28;20135;-62
2023/07/20 06:52:20;;;;;;;4.85;1.50;;;26.40;76.90;;;;;;5092993;28;20093;-67
2023/07/20 06:54:46;;;;;;;4.28;1.27;;;26.50;76.80;;;;;;5073538;28;20063;-68
2023/07/20 06:57:11;;;;;;;4.85;1.65;;;26.30;76.30;;;;;;5091363;28;20104;-73
2023/07/20 06:59:37;;;;;;;5.78;1.75;;;26.40;76.30;;;;;;5092175;28;20044;-68
2023/07/20 07:02:03;;;;;;;4.85;1.27;;;26.40;76.40;;;;;;5091912;28;20050;-62
2023/07/20 07:04:29;;;;;;;5.50;1.48;;;26.30;75.90;;;;;;5091647;28;20047;-68
2023/07/20 07:06:55;;;;;;;3.83;1.60;;;26.50;76.30;;;;;;5090626;28;20085;-62
2023/07/20 07:09:21;;;;;;;4.75;1.38;;;26.50;76.20;;;;;;5092222;28;20397;-62
2023/07/20 07:11:46;;;;;;;4.22;1.17;;;26.70;76.30;;;;;;5085457;28;20497;-68
2023/07/20 07:14:12;;;;;;;5.75;1.60;;;26.70;76.10;;;;;;5087749;28;20459;-72
2023/07/20 07:16:38;;;;;;;3.92;1.40;;;26.40;75.90;;;;;;5090201;28;20044;-63
2023/07/20 07:19:05;;;;;;;4.28;1.60;;;26.80;76.10;;;;;;5080268;28;20067;-62
2023/07/20 07:21:31;;;;;;;4.43;1.27;;;26.70;76.10;;;;;;5068490;28;20043;-64
2023/07/20 07:23:57;;;;;;;5.28;1.35;;;26.70;75.90;;;;;;5090283;28;20143;-64
2023/07/20 07:26:24;;;;;;;3.92;1.50;;;26.70;75.70;;;;;;5090137;28;20178;-61
2023/07/20 07:28:49;;;;;;;4.72;1.60;;;26.70;75.70;;;;;;5084247;28;20553;-72
2023/07/20 07:31:15;;;;;;;3.80;1.50;;;26.60;75.30;;;;;;5085032;28;20151;-65
2023/07/20 07:33:41;;;;;;;6.70;2.28;;;26.90;75.20;;;;;;5090217;28;20048;-68
2023/07/20 07:36:07;;;;;;;4.22;1.77;;;26.90;74.90;;;;;;5091427;28;20052;-61
2023/07/20 07:38:33;;;;;;;4.63;1.90;;;26.60;74.50;;;;;;5091123;28;20123;-70
2023/07/20 07:40:59;;;;;;;7.55;2.65;;;26.70;74.70;;;;;;5091153;28;20402;-68
2023/07/20 07:43:25;;;;;;;5.53;2.28;;;26.70;74.90;;;;;;5082507;28;20125;-74
2023/07/20 07:45:53;;;;;;;5.47;2.35;;;26.70;75.10;;;;;;5084873;28;20098;-71
2023/07/20 07:48:20;;;;;;;8.15;2.83;;;26.40;75.60;;;;;;5090199;28;20048;-63
2023/07/20 07:50:46;;;;;;;8.73;2.70;;;26.10;75.50;;;;;;5092662;28;20040;-61
2023/07/20 07:53:12;;;;;;;6.20;2.30;;;26.10;75.70;;;;;;5088150;28;20052;-64
2023/07/20 07:55:37;;;;;;;7.05;2.78;;;25.70;75.70;;;;;;5091159;28;20521;-69
2023/07/20 07:58:03;;;;;;;7.03;2.60;;;25.50;76.00;;;;;;5072597;28;20052;-68
2023/07/20 08:00:29;;;;;;;6.50;2.60;;;25.70;76.40;;;;;;5089541;28;20122;-67
2023/07/20 08:02:55;;;;;;;9.35;2.72;;;25.70;76.60;;;;;;5090435;28;20490;-63
2023/07/20 08:05:21;;;;;;;5.50;2.65;;;25.50;76.60;;;;;;5092447;28;20462;-62
2023/07/20 08:07:46;;;;;;;4.88;2.47;;;25.70;76.90;;;;;;5088944;28;20497;-67
2023/07/20 08:10:12;;;;;;;7.53;2.70;;;25.40;76.80;;;;;;5083195;28;20041;-66
2023/07/20 08:12:38;;;;;;;6.15;2.50;;;25.40;77.10;;;;;;5081284;28;20097;-63
2023/07/20 08:15:04;;;;;;;10.48;3.83;;;25.20;77.00;;;;;;5091963;28;20051;-65
2023/07/20 08:17:30;;;;;;;20.65;6.95;;;25.40;76.70;;;;;;5090717;28;20079;-62
2023/07/20 08:19:56;;;;;;;14.88;5.13;;;25.20;76.90;;;;;;5079359;28;20071;-66
2023/07/20 08:22:22;;;;;;;11.55;3.63;;;25.00;77.10;;;;;;5090826;28;20458;-72
2023/07/20 08:24:47;;;;;;;14.50;4.25;;;24.90;77.40;;;;;;5088033;28;20047;-71
2023/07/20 08:27:14;;;;;;;12.15;4.47;;;24.90;77.60;;;;;;5093077;28;20040;-67
2023/07/20 08:29:39;;;;;;;9.65;3.50;;;24.90;81.50;;;;;;5076582;28;20043;-67
2023/07/20 08:32:06;;;;;;;10.50;3.90;;;24.70;77.80;;;;;;5075185;28;20393;-65
2023/07/20 08:34:32;;;;;;;12.70;4.45;;;24.80;77.80;;;;;;5092534;28;20051;-65
2023/07/20 08:36:58;;;;;;;9.00;3.22;;;24.80;81.50;;;;;;5084803;28;20039;-64
2023/07/20 08:39:24;;;;;;;7.82;3.22;;;25.00;78.20;;;;;;5093016;28;20151;-61
2023/07/20 08:41:51;;;;;;;9.50;3.50;;;24.90;78.10;;;;;;5093998;28;20143;-61
2023/07/20 08:44:17;;;;;;;7.55;2.90;;;25.30;78.40;;;;;;5077618;28;20060;-64
2023/07/20 08:46:43;;;;;;;13.77;4.40;;;25.20;78.10;;;;;;5095333;28;20040;-67
2023/07/20 08:49:08;;;;;;;12.73;3.35;;;25.30;78.00;;;;;;5090760;28;20393;-68
2023/07/20 08:51:34;;;;;;;8.10;3.42;;;25.40;78.00;;;;;;5091576;28;20040;-62
2023/07/20 08:54:00;;;;;;;11.50;4.05;;;25.50;77.90;;;;;;5092087;28;20144;-67
2023/07/20 08:56:26;;;;;;;8.75;3.25;;;25.30;77.60;;;;;;5095685;28;20048;-61
2023/07/20 08:58:55;;;;;;;7.93;3.13;;;25.60;77.70;;;;;;5093632;28;20426;-61
2023/07/20 09:01:21;;;;;;;10.80;3.35;;;25.50;76.30;;;;;;5089711;28;20130;-63
2023/07/20 09:03:47;;;;;;;6.15;2.40;;;25.60;77.50;;;;;;5083678;28;20679;-63
2023/07/20 09:06:13;;;;;;;5.53;2.40;;;25.50;77.10;;;;;;5089645;28;20424;-61
2023/07/20 09:08:42;;;;;;;13.30;2.97;;;25.70;80.00;;;;;;5086626;28;20044;-68
2023/07/20 09:11:11;;;;;;;13.75;3.72;;;25.70;77.10;;;;;;5087540;28;20402;-62
2023/07/20 09:13:37;;;;;;;8.18;2.53;;;25.60;77.20;;;;;;5089800;28;20047;-63
2023/07/20 09:16:04;;;;;;;8.63;2.70;;;25.80;76.80;;;;;;5088721;28;20054;-69
2023/07/20 09:18:31;;;;;;;8.77;2.53;;;25.90;76.50;;;;;;5094277;28;20413;-77
2023/07/20 09:21:04;;;;;;;9.43;2.88;;;25.70;79.40;;;;;;5091306;28;20047;-73
2023/07/20 09:23:42;;;;;;;8.80;3.00;;;25.60;76.80;;;;;;5091242;28;20195;-70
2023/07/20 09:26:15;;;;;;;9.07;2.30;;;25.60;75.30;;;;;;5093710;28;20186;-67
2023/07/20 09:29:04;;;;;;;11.98;2.67;;;25.70;75.10;;;;;;5080386;28;20044;-65
2023/07/20 09:31:29;;;;;;;5.35;1.95;;;25.70;75.00;;;;;;5090766;28;20074;-67
2023/07/20 09:33:55;;;;;;;6.95;2.13;;;25.60;75.90;;;;;;5087886;28;20040;-61
2023/07/20 09:36:21;;;;;;;9.88;2.78;;;25.90;76.10;;;;;;5091451;28;20036;-62
2023/07/20 09:38:47;;;;;;;6.55;2.00;;;25.80;76.00;;;;;;5090416;28;20417;-74
2023/07/20 09:41:15;;;;;;;7.32;2.30;;;25.70;75.90;;;;;;5091284;28;20047;-66
2023/07/20 09:43:41;;;;;;;9.07;2.30;;;26.10;76.10;;;;;;5088895;28;20044;-65
2023/07/20 09:46:07;;;;;;;7.40;2.10;;;25.70;75.90;;;;;;5091633;28;20512;-60
2023/07/20 09:48:33;;;;;;;8.82;2.10;;;25.80;75.90;;;;;;5075875;28;20117;-71
2023/07/20 09:50:59;;;;;;;13.68;2.08;;;25.80;75.60;;;;;;5090353;28;20682;-63
2023/07/20 09:53:26;;;;;;;7.57;2.28;;;26.00;75.80;;;;;;5091488;28;20062;-71
2023/07/20 09:55:52;;;;;;;6.05;1.90;;;25.60;75.10;;;;;;5091598;28;20044;-76
2023/07/20 09:58:18;;;;;;;4.75;1.85;;;26.00;75.60;;;;;;5090999;28;20054;-73
2023/07/20 10:00:46;;;;;;;6.97;1.95;;;26.00;75.60;;;;;;5086633;28;20502;-71
2023/07/20 10:03:14;;;;;;;6.10;2.00;;;26.00;75.40;;;;;;5087013;28;20044;-75
2023/07/20 10:05:43;;;;;;;8.15;1.90;;;26.00;75.60;;;;;;5085818;28;20090;-62
2023/07/20 10:08:11;;;;;;;7.43;2.13;;;25.80;75.30;;;;;;5090720;28;20052;-68
2023/07/20 10:10:37;;;;;;;10.45;2.15;;;25.80;75.20;;;;;;5090495;28;20036;-73
2023/07/20 10:13:03;;;;;;;6.20;1.95;;;25.90;75.00;;;;;;5091834;28;20540;-72
2023/07/20 10:15:42;;;;;;;7.93;2.00;;;25.50;74.70;;;;;;5083590;28;20132;-65
2023/07/20 10:18:18;;;;;;;6.25;1.70;;;25.80;74.70;;;;;;5085258;28;20035;-66
2023/07/20 10:20:44;;;;;;;5.32;1.52;;;26.10;74.70;;;;;;5082256;28;20076;-61
2023/07/20 10:23:10;;;;;;;7.95;2.08;;;25.70;73.40;;;;;;5079612;28;20493;-72
2023/07/20 10:25:37;;;;;;;6.32;1.58;;;25.60;74.10;;;;;;5086405;28;20046;-70
2023/07/20 10:28:06;;;;;;;5.85;1.88;;;25.70;74.40;;;;;;5091218;28;20044;-67
2023/07/20 10:30:34;;;;;;;6.60;1.60;;;25.70;77.50;;;;;;5091994;28;20078;-77
2023/07/20 10:33:02;;;;;;;5.75;1.75;;;25.70;74.70;;;;;;5092153;28;20657;-69
2023/07/20 10:35:28;;;;;;;3.90;1.30;;;25.70;74.60;;;;;;5089330;28;20086;-66
2023/07/20 10:37:55;;;;;;;4.53;1.77;;;25.80;74.50;;;;;;5088313;28;20083;-64
2023/07/20 10:40:26;;;;;;;5.53;1.67;;;25.60;77.00;;;;;;5088773;28;20056;-67
2023/07/20 10:42:56;;;;;;;4.05;1.52;;;25.70;74.20;;;;;;5091527;28;20058;-73
2023/07/20 10:45:33;;;;;;;4.60;1.42;;;25.70;74.60;;;;;;5086551;28;20103;-64
2023/07/20 10:47:59;;;;;;;3.17;1.35;;;25.80;73.20;;;;;;5056426;28;20063;-69
2023/07/20 10:50:25;;;;;;;3.88;1.20;;;25.70;74.20;;;;;;5056184;28;20119;-75
2023/07/20 10:53:05;;;;;;;3.70;1.35;;;25.40;73.80;;;;;;5076918;28;20056;-64
2023/07/20 10:55:31;;;;;;;3.75;1.35;;;25.70;74.60;;;;;;5083801;28;20126;-73
2023/07/20 10:58:14;;;;;;;3.72;1.30;;;25.70;74.20;;;;;;5090504;28;20406;-74
2023/07/20 11:00:57;;;;;;;4.88;1.20;;;25.50;72.70;;;;;;5089702;28;20121;-64
2023/07/20 11:03:29;;;;;;;4.10;1.25;;;25.70;74.30;;;;;;5074247;28;20048;-65
2023/07/20 11:05:56;;;;;;;4.10;1.20;;;25.80;74.20;;;;;;5069219;28;20043;-61
2023/07/20 11:08:39;;;;;;;3.55;1.33;;;25.50;73.80;;;;;;5088854;28;20467;-62
2023/07/20 11:11:27;;;;;;;5.20;1.40;;;25.50;74.20;;;;;;5084182;28;20042;-63
2023/07/20 11:13:55;;;;;;;3.25;1.20;;;25.40;72.70;;;;;;5090702;28;20075;-67
2023/07/20 11:16:35;;;;;;;4.65;1.50;;;25.50;74.10;;;;;;5073098;28;20051;-64
2023/07/20 11:19:01;;;;;;;3.50;1.40;;;25.50;72.70;;;;;;5091369;28;20040;-63
2023/07/20 11:21:27;;;;;;;3.45;1.30;;;25.20;73.80;;;;;;5088929;28;20048;-77
2023/07/20 11:23:53;;;;;;;2.15;1.20;;;25.50;74.40;;;;;;5087935;28;20044;-73
2023/07/20 11:26:19;;;;;;;2.90;1.35;;;25.70;76.90;;;;;;5078604;28;20313;-61
2023/07/20 11:28:51;;;;;;;2.65;1.20;;;25.30;73.50;;;;;;5086179;28;20128;-64
2023/07/20 11:31:20;;;;;;;;;;;25.40;73.70;;;;;;5095208;28;20082;-72
2023/07/20 11:33:46;;;;;;;2.95;1.17;;;25.40;73.80;;;;;;5098217;28;20365;-61
2023/07/20 11:36:12;;;;;;;4.40;1.45;;;25.50;73.30;;;;;;5090390;28;20393;-75
2023/07/20 11:38:41;;;;;;;3.13;1.23;;;25.50;73.50;;;;;;5078242;28;20048;-69
2023/07/20 11:41:07;;;;;;;3.60;1.30;;;25.40;73.70;;;;;;5088365;28;20036;-74
2023/07/20 11:43:33;;;;;;;2.63;1.15;;;25.30;73.10;;;;;;5078560;28;20398;-65
2023/07/20 11:45:59;;;;;;;3.20;1.20;;;25.60;73.20;;;;;;5074722;28;20054;-71
2023/07/20 11:48:26;;;;;;;4.30;1.25;;;25.50;73.20;;;;;;5083714;28;20458;-62
2023/07/20 11:50:51;;;;;;;5.25;1.50;;;25.50;73.10;;;;;;5077597;28;20036;-61
2023/07/20 11:53:17;;;;;;;6.57;1.33;;;25.70;72.90;;;;;;5082843;28;20528;-77
2023/07/20 11:55:43;;;;;;;5.43;1.48;;;25.40;72.70;;;;;;5092735;28;20047;-62
2023/07/20 11:58:10;;;;;;;9.63;1.45;;;25.40;72.80;;;;;;5092364;28;20094;-74
2023/07/20 12:00:38;;;;;;;7.15;1.40;;;25.70;73.00;;;;;;5090055;28;20393;-66
2023/07/20 12:03:06;;;;;;;3.70;1.20;;;25.60;73.00;;;;;;5096226;28;20122;-74
2023/07/20 12:05:32;;;;;;;3.33;1.20;;;25.80;73.20;;;;;;5096317;28;20087;-71
2023/07/20 12:07:58;;;;;;;4.30;1.60;;;25.90;72.90;;;;;;5095815;28;20067;-65
2023/07/20 12:10:26;;;;;;;3.15;1.30;;;25.70;72.80;;;;;;5094704;28;20055;-62
2023/07/20 12:12:51;;;;;;;4.10;1.30;;;25.60;72.80;;;;;;5095713;28;20090;-66
2023/07/20 12:15:20;;;;;;;3.55;1.10;;;26.00;72.60;;;;;;5095320;28;20079;-78
2023/07/20 12:17:46;;;;;;;3.63;1.50;;;25.90;72.30;;;;;;5082357;28;20402;-63
2023/07/20 12:20:12;;;;;;;4.40;1.30;;;25.90;72.70;;;;;;5078623;28;20058;-72
2023/07/20 12:22:43;;;;;;;4.53;1.20;;;25.80;72.10;;;;;;5096127;28;20051;-60
2023/07/20 12:25:09;;;;;;;3.67;1.25;;;25.90;72.80;;;;;;5096250;28;20086;-64
2023/07/20 12:27:38;;;;;;;4.35;1.20;;;25.90;72.70;;;;;;5078742;28;20131;-60
2023/07/20 12:30:06;;;;;;;3.30;1.27;;;25.80;72.70;;;;;;5075853;28;20044;-69
2023/07/20 12:32:32;;;;;;;4.05;1.80;;;26.10;72.30;;;;;;5094836;28;20098;-62
2023/07/20 12:35:00;;;;;;;4.30;1.20;;;25.90;72.80;;;;;;5078758;28;20056;-79
2023/07/20 12:37:26;;;;;;;3.30;1.10;;;25.70;72.50;;;;;;5083846;28;20044;-70
2023/07/20 12:39:52;;;;;;;4.35;1.33;;;25.70;72.60;;;;;;5076770;28;20059;-62
2023/07/20 12:42:18;;;;;;;3.65;1.15;;;25.80;72.70;;;;;;5088873;28;20036;-60
2023/07/20 12:44:44;;;;;;;4.10;1.45;;;25.90;72.70;;;;;;5090594;28;20044;-65
2023/07/20 12:47:09;;;;;;;2.53;1.25;;;25.70;72.60;;;;;;5095005;28;20036;-70